Time;durP1;ratioP1;P1;durP2;ratioP2;P2;SDS_P1;SDS_P2;PMS_P1;PMS_P2;Temp;Humidity;BMP_temperature;BMP_pressure;BME280_temperature;BME280_humidity;BME280_pressure;Samples;Min_cycle;Max_cycle;Signal;HPM_P1;HPM_P2
2023/09/07 00:01:19;;;;;;;5.78;4.32;;;;;;;23.44;57.22;101863.41;4941325;28;20469;-77
2023/09/07 00:03:44;;;;;;;6.65;4.25;;;;;;;23.43;56.67;101861.69;4942132;28;20039;-77
2023/09/07 00:06:10;;;;;;;6.70;5.18;;;;;;;23.42;57.22;101858.22;4941796;28;20071;-77
2023/09/07 00:08:35;;;;;;;6.63;4.85;;;;;;;23.42;56.89;101860.88;4941745;28;20042;-77
2023/09/07 00:11:09;;;;;;;6.75;4.82;;;;;;;23.41;56.91;101859.19;4941163;28;20456;-77
2023/09/07 00:13:34;;;;;;;5.97;4.25;;;;;;;23.42;57.01;101858.22;4940876;28;20098;-77
2023/09/07 00:16:01;;;;;;;5.82;4.20;;;;;;;23.41;57.21;101858.34;4940917;28;20059;-77
2023/09/07 00:18:27;;;;;;;7.57;4.28;;;;;;;23.41;56.70;101855.69;4941400;28;20047;-77
2023/09/07 00:20:52;;;;;;;7.55;4.80;;;;;;;23.40;57.20;101856.66;4955048;28;20035;-77
2023/09/07 00:23:18;;;;;;;5.97;4.28;;;;;;;23.40;56.84;101860.19;4941754;28;20066;-77
2023/09/07 00:25:43;;;;;;;6.70;4.55;;;;;;;23.39;56.70;101855.81;4942054;28;20039;-77
2023/09/07 00:28:08;;;;;;;6.50;5.05;;;;;;;23.40;56.77;101854.00;4941777;28;20043;-77
2023/09/07 00:30:33;;;;;;;7.13;5.07;;;;;;;23.39;56.75;101858.47;4942332;28;20035;-78
2023/09/07 00:32:59;;;;;;;6.80;4.38;;;;;;;23.38;56.89;101847.97;4942151;28;20743;-77
2023/09/07 00:35:24;;;;;;;7.47;4.63;;;;;;;23.38;56.72;101845.31;4941363;28;20578;-77
2023/09/07 00:37:49;;;;;;;6.35;4.13;;;;;;;23.38;56.82;101834.69;4941679;28;20082;-77
2023/09/07 00:40:15;;;;;;;6.13;4.03;;;;;;;23.37;56.82;101841.81;4941499;28;20064;-77
2023/09/07 00:42:41;;;;;;;7.13;4.32;;;;;;;23.36;56.87;101834.81;4956633;28;20185;-77
2023/09/07 00:45:10;;;;;;;8.02;4.93;;;;;;;23.35;56.66;101841.09;4941701;28;20876;-77
2023/09/07 00:47:38;;;;;;;6.75;4.60;;;;;;;23.36;56.77;101837.47;4941159;28;20027;-77
2023/09/07 00:50:04;;;;;;;6.75;4.60;;;;;;;23.36;56.64;101842.78;4941604;29;20110;-77
2023/09/07 00:52:31;;;;;;;7.05;4.97;;;;;;;23.35;56.55;101847.28;4941627;28;20031;-76
2023/09/07 00:54:56;;;;;;;7.32;4.45;;;;;;;23.35;56.74;101844.63;4941148;28;20039;-77
2023/09/07 00:57:21;;;;;;;6.93;5.20;;;;;;;23.35;56.85;101847.28;4941455;28;20039;-77
2023/09/07 00:59:47;;;;;;;7.32;4.60;;;;;;;23.35;56.54;101843.75;4941637;28;20059;-78
2023/09/07 01:02:12;;;;;;;7.07;4.55;;;;;;;23.34;56.80;101848.25;4941076;28;20035;-76
2023/09/07 01:04:37;;;;;;;7.28;4.45;;;;;;;23.34;56.75;101842.09;4941283;28;20093;-77
2023/09/07 01:07:15;;;;;;;6.20;4.27;;;;;;;23.31;56.84;101845.84;4941517;28;20477;-77
2023/09/07 01:09:43;;;;;;;8.75;4.95;;;;;;;23.31;56.57;101845.84;4940324;28;20280;-77
2023/09/07 01:12:14;;;;;;;7.30;4.55;;;;;;;23.31;56.77;101850.34;4943535;28;20515;-77
2023/09/07 01:14:39;;;;;;;6.10;4.45;;;;;;;23.33;56.76;101851.03;4944634;29;20126;-77
2023/09/07 01:17:05;;;;;;;8.68;4.80;;;;;;;23.32;56.62;101844.03;4944560;28;20092;-78
2023/09/07 01:19:30;;;;;;;7.47;4.70;;;;;;;23.31;56.52;101843.19;4944383;28;20420;-78
2023/09/07 01:21:57;;;;;;;7.50;4.65;;;;;;;23.31;56.71;101840.53;4944406;28;20042;-78
2023/09/07 01:24:24;;;;;;;7.38;5.00;;;;;;;23.30;56.45;101838.84;4943833;29;20047;-77
2023/09/07 01:26:50;;;;;;;6.90;4.88;;;;;;;23.31;56.55;101843.19;4944319;28;20031;-77
2023/09/07 01:29:18;;;;;;;6.47;4.38;;;;;;;23.30;56.36;101832.69;4944302;28;20473;-77
2023/09/07 01:31:43;;;;;;;7.30;4.95;;;;;;;23.30;56.52;101836.19;4943971;28;20031;-77
2023/09/07 01:34:09;;;;;;;6.93;5.20;;;;;;;23.27;56.44;101833.78;4944277;28;20039;-77
2023/09/07 01:36:35;;;;;;;6.88;4.65;;;;;;;23.29;56.48;101837.19;4943965;28;20097;-77
2023/09/07 01:39:01;;;;;;;6.35;4.65;;;;;;;23.27;56.30;101827.63;4943661;28;20176;-77
2023/09/07 01:41:26;;;;;;;6.68;4.80;;;;;;;23.26;56.45;101825.97;4943920;29;20032;-77
2023/09/07 01:43:52;;;;;;;6.35;4.60;;;;;;;23.28;56.27;101832.00;4943625;29;20046;-77
2023/09/07 01:46:17;;;;;;;10.88;5.95;;;;;;;23.27;56.68;101820.50;4944041;28;20135;-78
2023/09/07 01:48:42;;;;;;;6.97;4.68;;;;;;;23.28;56.58;101821.34;4943829;29;20023;-77
2023/09/07 01:51:08;;;;;;;7.53;4.57;;;;;;;23.27;56.45;101825.81;4943552;29;20082;-77
2023/09/07 01:53:34;;;;;;;5.88;4.20;;;;;;;23.27;56.54;101817.00;4958408;28;20101;-77
2023/09/07 01:55:59;;;;;;;6.40;4.65;;;;;;;23.26;56.39;101820.66;4958797;28;20125;-77
2023/09/07 01:58:25;;;;;;;7.55;4.57;;;;;;;23.27;56.38;101820.50;4943754;28;20039;-77
2023/09/07 02:00:50;;;;;;;6.72;4.68;;;;;;;23.27;56.57;101827.63;4943578;28;20129;-77
2023/09/07 02:03:16;;;;;;;9.07;4.47;;;;;;;23.26;56.30;101829.47;4943828;29;20035;-78
2023/09/07 02:05:41;;;;;;;7.00;4.93;;;;;;;23.26;56.34;101826.81;4943068;28;20042;-77
2023/09/07 02:08:06;;;;;;;6.30;4.72;;;;;;;23.25;56.29;101830.44;4943309;28;20046;-77
2023/09/07 02:10:33;;;;;;;6.53;4.80;;;;;;;23.24;56.23;101823.44;4943216;29;20098;-78
2023/09/07 02:12:58;;;;;;;6.53;4.45;;;;;;;23.23;55.96;101816.44;4943369;28;20023;-78
2023/09/07 02:15:24;;;;;;;6.05;4.43;;;;;;;23.26;56.31;101818.81;4943666;28;20118;-77
2023/09/07 02:17:49;;;;;;;6.97;4.93;;;;;;;23.25;56.09;101821.63;4943521;28;20416;-78
2023/09/07 02:20:15;;;;;;;6.18;4.43;;;;;;;23.25;55.88;101818.97;4942988;28;20054;-77
2023/09/07 02:22:40;;;;;;;6.57;4.80;;;;;;;23.23;56.15;101815.59;4942166;28;20039;-77
2023/09/07 02:25:06;;;;;;;6.28;4.07;;;;;;;23.24;56.12;101820.78;4942809;28;20941;-77
2023/09/07 02:27:35;;;;;;;6.47;4.18;;;;;;;23.22;55.89;101819.22;4943500;28;20124;-77
2023/09/07 02:30:02;;;;;;;6.75;4.90;;;;;;;23.23;56.14;101816.44;4943406;28;20057;-77
2023/09/07 02:32:28;;;;;;;7.07;4.90;;;;;;;23.23;56.17;101824.41;4943565;28;20788;-77
2023/09/07 02:34:53;;;;;;;6.85;4.90;;;;;;;23.23;56.04;101815.59;4942460;29;20037;-77
2023/09/07 02:37:18;;;;;;;6.00;4.53;;;;;;;23.23;55.82;101819.09;4943376;28;20070;-77
2023/09/07 02:39:43;;;;;;;7.25;4.97;;;;;;;23.23;56.37;101816.44;4942580;28;20843;-77
2023/09/07 02:42:09;;;;;;;6.90;4.97;;;;;;;23.23;56.31;101812.94;4943317;28;20495;-77
2023/09/07 02:44:35;;;;;;;7.00;4.68;;;;;;;23.23;56.22;101816.44;4943420;28;20321;-77
2023/09/07 02:47:01;;;;;;;7.43;4.80;;;;;;;23.22;56.23;101817.41;4941891;28;20035;-77
2023/09/07 02:49:26;;;;;;;6.18;4.57;;;;;;;23.22;55.83;101821.88;4943246;28;20037;-78
2023/09/07 02:51:51;;;;;;;6.40;5.05;;;;;;;23.21;55.93;101820.19;4942938;28;20445;-77
2023/09/07 02:54:16;;;;;;;5.95;4.80;;;;;;;23.22;56.15;101812.09;4957300;28;20405;-78
2023/09/07 02:56:42;;;;;;;7.00;4.78;;;;;;;23.21;55.78;101813.09;4957255;28;20047;-78
2023/09/07 02:59:08;;;;;;;6.57;4.55;;;;;;;23.21;55.80;101804.25;4942840;28;20536;-78
2023/09/07 03:01:34;;;;;;;6.20;4.60;;;;;;;23.20;55.88;101806.06;4942314;28;20401;-78
2023/09/07 03:03:59;;;;;;;5.93;4.63;;;;;;;23.21;56.10;101804.25;4942442;28;20034;-78
2023/09/07 03:06:24;;;;;;;7.47;4.40;;;;;;;23.20;56.06;101803.41;4942492;28;20144;-78
2023/09/07 03:08:50;;;;;;;6.78;4.57;;;;;;;23.21;55.89;101806.91;4942459;28;20039;-78
2023/09/07 03:11:15;;;;;;;7.15;4.68;;;;;;;23.20;56.37;101808.72;4942807;28;20039;-77
2023/09/07 03:13:42;;;;;;;6.75;5.07;;;;;;;23.19;56.31;101807.03;4942934;28;20138;-78
2023/09/07 03:16:07;;;;;;;6.07;4.57;;;;;;;23.19;56.18;101815.00;4941853;28;20059;-78
2023/09/07 03:18:33;;;;;;;6.22;4.65;;;;;;;23.19;56.13;101815.00;4943526;28;20042;-78
2023/09/07 03:21:01;;;;;;;7.35;4.53;;;;;;;23.21;56.16;101812.22;4942163;28;20535;-78
2023/09/07 03:23:28;;;;;;;7.20;4.82;;;;;;;23.19;56.08;101815.00;4957926;28;20035;-78
2023/09/07 03:25:53;;;;;;;8.23;4.63;;;;;;;23.18;56.23;101808.88;4942803;28;20033;-78
2023/09/07 03:28:19;;;;;;;6.22;4.40;;;;;;;23.18;55.94;101814.19;4943247;28;20095;-78
2023/09/07 03:30:44;;;;;;;5.80;4.15;;;;;;;23.18;56.20;101808.88;4941645;28;20036;-77
2023/09/07 03:33:10;;;;;;;6.85;4.90;;;;;;;23.18;55.75;101808.03;4942557;28;20041;-78
2023/09/07 03:35:35;;;;;;;7.10;4.85;;;;;;;23.17;56.32;101812.50;4941817;28;20035;-78
2023/09/07 03:38:00;;;;;;;6.72;4.45;;;;;;;23.19;56.14;101815.00;4942036;28;20059;-78
2023/09/07 03:40:28;;;;;;;6.85;4.70;;;;;;;23.20;55.87;101823.84;4942736;28;20123;-78
2023/09/07 03:42:53;;;;;;;6.22;4.60;;;;;;;23.18;55.66;101818.66;4941954;28;20783;-78
2023/09/07 03:45:19;;;;;;;6.25;4.50;;;;;;;23.17;56.13;101820.47;4941216;28;20154;-78
2023/09/07 03:47:44;;;;;;;6.18;4.25;;;;;;;23.18;55.90;101818.66;4941267;28;20050;-77
2023/09/07 03:50:09;;;;;;;6.65;4.55;;;;;;;23.17;55.74;101823.13;4941026;28;20046;-77
2023/09/07 03:52:35;;;;;;;6.40;4.60;;;;;;;23.18;55.71;101824.81;4941467;28;21267;-77
2023/09/07 03:55:01;;;;;;;6.65;4.50;;;;;;;23.16;55.95;101816.13;4942029;28;20042;-78
2023/09/07 03:57:27;;;;;;;5.65;4.43;;;;;;;23.16;56.05;101821.47;4941659;28;20501;-77
2023/09/07 03:59:52;;;;;;;5.70;4.32;;;;;;;23.16;55.65;101820.59;4942388;28;20045;-78
2023/09/07 04:02:17;;;;;;;6.05;3.92;;;;;;;23.15;55.79;101822.44;4956647;28;20031;-78
2023/09/07 04:04:47;;;;;;;5.97;4.30;;;;;;;23.16;55.55;101832.09;4941210;28;20039;-77
2023/09/07 04:07:12;;;;;;;6.85;4.53;;;;;;;23.14;55.84;101820.72;4941798;29;20042;-78
2023/09/07 04:09:38;;;;;;;5.70;4.28;;;;;;;23.16;55.82;101823.25;4941371;28;20039;-77
2023/09/07 04:12:03;;;;;;;7.28;4.28;;;;;;;23.16;55.98;101820.59;4941002;28;20063;-77
2023/09/07 04:14:30;;;;;;;5.70;4.50;;;;;;;23.15;55.61;101817.09;4941023;29;20128;-77
2023/09/07 04:16:55;;;;;;;6.88;4.40;;;;;;;23.15;55.69;101814.44;4940731;28;20047;-78
2023/09/07 04:19:20;;;;;;;5.75;3.85;;;;;;;23.16;55.60;101817.94;4941308;28;20098;-78
2023/09/07 04:21:46;;;;;;;6.60;4.50;;;;;;;23.15;55.15;101819.75;4940850;28;20098;-78
2023/09/07 04:24:11;;;;;;;6.95;4.45;;;;;;;23.14;55.54;101820.72;4942007;28;20382;-78
2023/09/07 04:26:38;;;;;;;8.98;4.97;;;;;;;23.14;55.54;101820.72;4940818;28;20794;-78
2023/09/07 04:29:03;;;;;;;7.32;4.60;;;;;;;23.14;55.76;101819.91;4941336;28;20086;-78
2023/09/07 04:31:29;;;;;;;7.13;4.60;;;;;;;23.14;55.58;101823.38;4941604;28;20035;-78
2023/09/07 04:33:55;;;;;;;6.07;4.50;;;;;;;23.14;55.63;101826.06;4941106;28;20404;-78
2023/09/07 04:36:20;;;;;;;6.32;4.55;;;;;;;23.13;55.44;101832.38;4950777;28;20039;-78
2023/09/07 04:38:45;;;;;;;7.68;4.43;;;;;;;23.13;55.70;101829.69;4941553;28;20046;-78
2023/09/07 04:41:12;;;;;;;6.75;4.68;;;;;;;23.13;55.61;101826.19;4941427;28;20078;-78
2023/09/07 04:43:45;;;;;;;6.35;4.60;;;;;;;23.13;55.50;101831.50;4942026;28;20059;-78
2023/09/07 04:46:12;;;;;;;5.77;4.00;;;;;;;23.14;55.54;101822.56;4941832;28;20102;-78
2023/09/07 04:48:38;;;;;;;6.65;4.28;;;;;;;23.13;55.50;101820.88;4944355;28;20043;-78
2023/09/07 04:51:06;;;;;;;7.60;4.50;;;;;;;23.13;55.62;101821.72;4945330;28;20077;-78
2023/09/07 04:53:34;;;;;;;6.25;4.60;;;;;;;23.12;55.55;101820.03;4944953;29;20497;-78
2023/09/07 04:56:00;;;;;;;5.60;4.15;;;;;;;23.12;55.18;101828.00;4943294;28;20035;-78
2023/09/07 04:58:25;;;;;;;6.32;4.25;;;;;;;23.12;55.38;101816.53;4944855;28;20065;-78
2023/09/07 05:00:51;;;;;;;6.18;4.28;;;;;;;23.11;55.71;101826.31;4958741;28;20031;-78
2023/09/07 05:03:17;;;;;;;6.72;4.30;;;;;;;23.12;55.38;101824.53;4945226;28;20031;-77
2023/09/07 05:05:46;;;;;;;7.10;4.70;;;;;;;23.12;55.55;101829.84;4944653;29;20042;-78
2023/09/07 05:08:11;;;;;;;6.78;4.68;;;;;;;23.11;55.36;101831.63;4944637;28;20130;-78
2023/09/07 05:10:38;;;;;;;6.57;4.22;;;;;;;23.12;55.70;101838.66;4958576;28;20411;-78
2023/09/07 05:13:03;;;;;;;6.57;4.43;;;;;;;23.11;55.56;101834.28;4944438;28;20050;-78
2023/09/07 05:15:29;;;;;;;7.55;5.53;;;;;;;23.10;55.36;101837.94;4943391;28;20058;-78
2023/09/07 05:17:55;;;;;;;5.90;4.30;;;;;;;23.10;55.73;101837.13;4944161;28;20044;-78
2023/09/07 05:20:21;;;;;;;6.95;4.20;;;;;;;23.10;55.38;101843.25;4958791;28;20039;-78
2023/09/07 05:22:46;;;;;;;7.13;4.50;;;;;;;23.10;55.58;101839.78;4958098;28;20412;-77
2023/09/07 05:25:12;;;;;;;6.07;4.10;;;;;;;23.10;55.49;101840.59;4958739;28;20032;-77
2023/09/07 05:27:39;;;;;;;5.85;4.00;;;;;;;23.10;55.43;101842.44;4958847;28;20034;-78
2023/09/07 05:30:06;;;;;;;6.43;4.20;;;;;;;23.10;55.56;101840.59;4943886;28;20213;-76
2023/09/07 05:32:31;;;;;;;6.07;4.28;;;;;;;23.11;55.29;101844.09;4944312;28;20412;-77
2023/09/07 05:34:57;;;;;;;6.93;4.28;;;;;;;23.09;55.15;101851.38;4944629;28;20035;-77
2023/09/07 05:37:22;;;;;;;6.35;4.38;;;;;;;23.10;55.49;101845.91;4943616;28;20440;-77
2023/09/07 05:39:48;;;;;;;5.95;4.50;;;;;;;23.08;55.07;101845.22;4944053;28;20039;-77
2023/09/07 05:42:14;;;;;;;6.15;4.35;;;;;;;23.09;55.44;101846.06;4942935;28;20031;-77
2023/09/07 05:44:40;;;;;;;6.93;4.53;;;;;;;23.09;55.39;101848.72;4944059;28;20514;-77
2023/09/07 05:47:05;;;;;;;6.75;3.97;;;;;;;23.09;55.31;101854.88;4944528;28;20046;-78
2023/09/07 05:49:30;;;;;;;7.07;4.30;;;;;;;23.08;55.47;101855.84;4944486;28;20075;-78
2023/09/07 05:51:56;;;;;;;6.28;4.47;;;;;;;23.08;55.52;101847.03;4942166;29;20035;-77
2023/09/07 05:54:21;;;;;;;6.15;4.15;;;;;;;23.08;55.38;101853.19;4944138;29;20481;-77
2023/09/07 05:56:47;;;;;;;6.95;3.85;;;;;;;23.08;55.68;101855.84;4958012;28;20037;-77
2023/09/07 05:59:12;;;;;;;5.75;3.90;;;;;;;23.08;55.58;101855.00;4943142;28;20432;-77
2023/09/07 06:01:38;;;;;;;5.95;4.10;;;;;;;23.08;55.29;101861.19;4942204;29;20563;-78
2023/09/07 06:04:04;;;;;;;6.38;4.25;;;;;;;23.08;55.41;101862.97;4943515;28;20043;-78
2023/09/07 06:06:29;;;;;;;8.15;4.45;;;;;;;23.13;55.28;101860.75;4942471;28;20049;-76
2023/09/07 06:08:55;;;;;;;6.55;4.00;;;;;;;23.15;55.32;101872.13;4943421;28;20043;-77
2023/09/07 06:11:20;;;;;;;7.32;4.35;;;;;;;23.14;55.34;101873.06;4943283;28;20027;-77
2023/09/07 06:13:46;;;;;;;5.95;4.00;;;;;;;23.14;55.48;101871.25;4943201;28;20035;-77
2023/09/07 06:16:12;;;;;;;7.90;4.13;;;;;;;23.14;55.66;101868.59;4942698;28;20055;-78
2023/09/07 06:18:37;;;;;;;6.75;4.10;;;;;;;23.15;55.48;101875.59;4942993;28;20508;-78
2023/09/07 06:21:04;;;;;;;6.43;4.28;;;;;;;23.15;55.55;101875.59;4942970;29;20138;-78
2023/09/07 06:23:29;;;;;;;6.28;4.45;;;;;;;23.14;55.44;101876.56;4943425;28;20126;-77
2023/09/07 06:25:55;;;;;;;5.18;3.60;;;;;;;23.15;55.81;101874.78;4942503;28;20118;-80
2023/09/07 06:28:20;;;;;;;6.60;4.22;;;;;;;23.14;55.75;101879.22;4943031;28;20042;-80
2023/09/07 06:30:46;;;;;;;7.80;3.90;;;;;;;23.14;56.37;101870.41;4942609;28;20031;-80
2023/09/07 06:33:11;;;;;;;5.90;3.90;;;;;;;23.14;55.84;101875.72;4943012;28;20058;-79
2023/09/07 06:35:36;;;;;;;5.68;3.83;;;;;;;23.13;56.20;101876.69;4957298;28;20190;-80
2023/09/07 06:38:02;;;;;;;5.28;3.90;;;;;;;23.14;56.17;101881.06;4941773;29;20035;-81
2023/09/07 06:40:27;;;;;;;7.15;4.10;;;;;;;23.15;56.12;101882.75;4957968;28;20429;-78
2023/09/07 06:42:53;;;;;;;5.93;3.97;;;;;;;23.14;56.33;101881.88;4943364;28;20035;-79
2023/09/07 06:45:18;;;;;;;5.65;4.05;;;;;;;23.15;55.92;101880.09;4943703;28;20846;-82
2023/09/07 06:47:44;;;;;;;5.30;3.72;;;;;;;23.15;56.08;101880.09;4943158;29;20130;-79
2023/09/07 06:50:10;;;;;;;6.93;4.63;;;;;;;23.16;55.87;101879.09;4944223;28;20110;-82
2023/09/07 06:52:35;;;;;;;5.88;3.67;;;;;;;23.18;56.65;101887.81;4943713;28;20043;-83
2023/09/07 06:55:01;;;;;;;8.25;4.20;;;;;;;23.17;56.01;101881.63;4943292;28;20039;-81
2023/09/07 06:57:26;;;;;;;6.72;4.30;;;;;;;23.17;56.47;101886.94;4942271;28;20066;-83
2023/09/07 06:59:52;;;;;;;7.18;4.50;;;;;;;23.17;56.12;101886.09;4942995;28;20039;-80
2023/09/07 07:02:17;;;;;;;8.70;4.68;;;;;;;23.18;56.06;101891.28;4943778;28;20034;-80
2023/09/07 07:04:45;;;;;;;6.05;3.90;;;;;;;23.19;56.50;101889.47;4957966;28;20035;-77
2023/09/07 07:07:11;;;;;;;5.40;3.63;;;;;;;23.18;56.54;101885.97;4957110;28;20039;-77
2023/09/07 07:09:36;;;;;;;8.88;4.00;;;;;;;23.20;56.52;101898.31;4942615;28;20089;-80
2023/09/07 07:12:02;;;;;;;6.88;4.00;;;;;;;23.20;56.49;101887.66;4943325;28;20420;-83
2023/09/07 07:14:27;;;;;;;5.95;3.90;;;;;;;23.21;56.87;101895.50;4942990;28;20043;-83
2023/09/07 07:16:52;;;;;;;6.53;4.30;;;;;;;23.23;57.09;101895.38;4942695;28;20058;-78
2023/09/07 07:19:18;;;;;;;5.80;3.80;;;;;;;23.23;57.29;101896.22;4943086;28;20066;-76
2023/09/07 07:21:43;;;;;;;6.88;4.05;;;;;;;23.24;57.02;101892.59;4942511;29;20035;-77
2023/09/07 07:24:08;;;;;;;5.75;3.67;;;;;;;23.25;57.41;101893.44;4957472;28;20295;-68
2023/09/07 07:26:34;;;;;;;9.38;3.88;;;;;;;23.27;57.03;101894.13;4943066;28;20078;-77
2023/09/07 07:28:59;;;;;;;8.45;3.97;;;;;;;23.27;57.01;101894.13;4942157;28;20031;-77
2023/09/07 07:31:25;;;;;;;6.18;3.40;;;;;;;23.25;57.11;101888.94;4942722;28;20093;-78
2023/09/07 07:33:50;;;;;;;6.22;3.70;;;;;;;23.27;57.25;101894.13;4942957;28;20035;-77
2023/09/07 07:36:16;;;;;;;7.05;3.85;;;;;;;23.26;57.47;101890.63;4941902;29;20420;-78
2023/09/07 07:38:41;;;;;;;6.63;3.60;;;;;;;23.29;57.39;101895.69;4941734;28;20040;-75
2023/09/07 07:41:06;;;;;;;6.00;3.72;;;;;;;23.29;57.44;101895.69;4942188;28;20065;-73
2023/09/07 07:43:33;;;;;;;7.32;3.78;;;;;;;23.28;57.60;101891.34;4941299;28;20035;-73
2023/09/07 07:45:59;;;;;;;6.80;3.47;;;;;;;23.30;57.54;101894.69;4941461;28;20070;-73
2023/09/07 07:48:24;;;;;;;6.35;3.72;;;;;;;23.28;57.55;101888.66;4942040;28;20125;-76
2023/09/07 07:50:50;;;;;;;7.35;3.67;;;;;;;23.32;57.34;101891.91;4940592;29;20142;-73
2023/09/07 07:53:15;;;;;;;5.10;3.33;;;;;;;23.32;57.39;101889.25;4941941;28;20043;-72
2023/09/07 07:55:41;;;;;;;5.13;3.42;;;;;;;23.32;57.89;101891.91;4941177;28;20095;-74
2023/09/07 07:58:09;;;;;;;5.82;3.47;;;;;;;23.32;57.81;101889.25;4940908;28;20042;-72
2023/09/07 08:00:36;;;;;;;6.20;3.60;;;;;;;23.32;57.90;101881.25;4941707;28;20436;-74
2023/09/07 08:03:03;;;;;;;8.27;3.55;;;;;;;23.31;58.03;101880.44;4956374;28;21836;-71
2023/09/07 08:05:29;;;;;;;5.95;3.50;;;;;;;23.34;57.60;101880.16;4940654;28;20062;-72
2023/09/07 08:07:56;;;;;;;7.78;3.78;;;;;;;23.35;57.74;101881.00;4941458;28;20071;-76
2023/09/07 08:10:21;;;;;;;6.95;3.75;;;;;;;23.34;57.85;101880.16;4941065;28;20125;-71
2023/09/07 08:12:47;;;;;;;10.93;3.75;;;;;;;23.38;58.02;101879.91;4938901;28;20640;-73
2023/09/07 08:15:12;;;;;;;6.75;3.50;;;;;;;23.38;57.72;101878.06;4942102;28;20047;-75
2023/09/07 08:17:37;;;;;;;7.20;3.60;;;;;;;23.39;57.74;101871.78;4942250;28;20319;-78
2023/09/07 08:20:03;;;;;;;7.63;3.60;;;;;;;23.40;57.54;101875.28;4942784;28;20516;-78
2023/09/07 08:22:28;;;;;;;7.00;3.40;;;;;;;23.49;57.73;101869.97;4941606;28;20517;-76
2023/09/07 08:24:55;;;;;;;6.45;3.50;;;;;;;23.55;57.38;101868.59;4945096;28;20035;-80
2023/09/07 08:27:21;;;;;;;7.15;3.53;;;;;;;23.57;57.08;101861.31;4960696;28;20481;-79
2023/09/07 08:29:48;;;;;;;6.15;3.72;;;;;;;23.59;57.24;101858.53;4946295;28;20031;-80
2023/09/07 08:32:14;;;;;;;5.40;3.50;;;;;;;23.59;56.88;101864.72;4945419;29;20039;-78
2023/09/07 08:34:40;;;;;;;5.35;3.42;;;;;;;23.61;56.77;101853.94;4948602;28;20366;-77
2023/09/07 08:37:08;;;;;;;6.97;3.58;;;;;;;23.60;57.04;101845.09;4950194;29;20117;-80
2023/09/07 08:39:34;;;;;;;6.15;3.40;;;;;;;23.62;57.14;101851.09;4947466;28;20073;-77
2023/09/07 08:42:00;;;;;;;5.78;3.45;;;;;;;23.63;57.00;101854.63;4945300;28;20433;-81
2023/09/07 08:44:26;;;;;;;5.43;3.20;;;;;;;23.64;56.93;101857.16;4946168;28;20039;-76
2023/09/07 08:46:52;;;;;;;5.65;3.33;;;;;;;23.62;56.95;101848.44;4945238;29;20039;-72
2023/09/07 08:49:23;;;;;;;8.35;3.88;;;;;;;23.66;56.99;101859.69;4946479;28;20043;-77
2023/09/07 08:51:49;;;;;;;7.90;3.17;;;;;;;23.65;56.74;101850.00;4944922;28;20074;-77
2023/09/07 09:00:58;;;;;;;5.75;3.47;;;;;;;23.69;56.90;101846.09;4946395;29;20069;-74
2023/09/07 09:03:24;;;;;;;7.13;3.63;;;;;;;23.68;56.78;101841.75;4947171;28;20461;-75
2023/09/07 09:05:53;;;;;;;5.80;3.33;;;;;;;23.69;56.60;101852.25;4946081;28;20038;-80
2023/09/07 09:08:20;;;;;;;6.05;3.10;;;;;;;23.70;56.96;101845.97;4945750;28;20066;-78
2023/09/07 09:10:45;;;;;;;5.82;3.20;;;;;;;23.71;56.50;101844.13;4947122;29;20543;-80
2023/09/07 09:13:11;;;;;;;6.43;3.42;;;;;;;23.72;56.55;101840.50;4947706;28;20070;-82
2023/09/07 09:15:36;;;;;;;5.97;3.45;;;;;;;23.72;56.51;101844.00;4945598;28;20214;-83
2023/09/07 09:18:12;;;;;;;5.78;3.13;;;;;;;23.72;56.84;101843.16;4945568;28;20113;-74
2023/09/07 09:20:38;;;;;;;6.80;3.72;;;;;;;23.74;56.74;101843.84;4943677;29;20174;-78
2023/09/07 09:23:04;;;;;;;6.05;3.20;;;;;;;23.76;56.60;101843.72;4960792;28;20171;-77
2023/09/07 09:25:31;;;;;;;4.95;3.40;;;;;;;23.77;56.56;101843.59;4945149;29;20098;-82
2023/09/07 09:27:57;;;;;;;4.82;3.30;;;;;;;23.75;56.34;101842.91;4943307;29;20043;-78
2023/09/07 09:30:22;;;;;;;5.88;3.65;;;;;;;23.76;56.69;101833.91;4943948;29;20452;-78
2023/09/07 09:32:48;;;;;;;5.53;3.30;;;;;;;23.75;56.63;101837.56;4958219;28;20042;-77
2023/09/07 09:35:17;;;;;;;6.93;3.28;;;;;;;23.75;56.79;101836.72;4944959;29;20150;-78
2023/09/07 09:37:48;;;;;;;6.75;3.35;;;;;;;23.76;56.37;101839.22;4961039;28;20567;-81
2023/09/07 09:40:14;;;;;;;6.40;3.08;;;;;;;23.80;56.58;101830.00;4944101;28;20413;-77
2023/09/07 09:42:44;;;;;;;6.65;3.40;;;;;;;23.80;56.53;101838.00;4959215;28;20120;-76
2023/09/07 09:45:11;;;;;;;7.03;3.20;;;;;;;23.83;56.66;101827.09;4945304;28;20035;-79
2023/09/07 09:47:41;;;;;;;5.35;3.00;;;;;;;23.82;56.66;101828.03;4961260;28;20074;-78
2023/09/07 09:50:10;;;;;;;5.85;3.05;;;;;;;23.82;56.75;101828.03;4944966;28;20102;-76
2023/09/07 09:52:36;;;;;;;5.07;3.15;;;;;;;23.83;56.44;101829.75;4943520;28;20122;-74
2023/09/07 09:55:07;;;;;;;4.53;3.20;;;;;;;23.83;56.79;101832.41;4945401;28;20027;-76
2023/09/07 09:57:37;;;;;;;5.93;3.10;;;;;;;23.83;56.68;101820.88;4944418;28;20031;-81
2023/09/07 10:00:47;;;;;;;5.15;3.28;;;;;;;23.82;56.64;101828.03;4944847;28;20035;-82
2023/09/07 10:02:59;;;;;;;5.20;3.30;;;;;;;23.83;56.83;101832.41;4951034;28;20048;-78
2023/09/07 10:05:25;;;;;;;7.53;3.00;;;;;;;23.82;56.72;101821.88;4944239;28;20162;-81
2023/09/07 10:07:51;;;;;;;5.82;2.92;;;;;;;23.80;56.80;101821.16;4942432;28;20036;-72
2023/09/07 10:10:18;;;;;;;6.22;3.20;;;;;;;23.78;56.70;101820.47;4943458;28;20031;-73
2023/09/07 10:12:50;;;;;;;4.90;3.00;;;;;;;23.76;56.39;101823.25;4942877;28;20423;-80
2023/09/07 10:15:21;;;;;;;7.60;3.28;;;;;;;23.76;56.85;101815.28;4943392;28;20065;-72
2023/09/07 10:17:49;;;;;;;6.57;3.40;;;;;;;23.80;56.74;101818.50;4944103;28;20876;-82
2023/09/07 10:20:15;;;;;;;9.63;3.15;;;;;;;23.81;57.02;101818.34;4944505;29;20035;-75
2023/09/07 10:22:41;;;;;;;5.63;3.22;;;;;;;23.78;56.53;101815.97;4943143;28;20039;-81
2023/09/07 10:25:26;;;;;;;7.88;2.90;;;;;;;23.80;56.56;101813.16;4942649;28;20623;-78
2023/09/07 10:27:51;;;;;;;6.90;3.10;;;;;;;23.83;56.86;101813.78;4943680;29;20044;-81
2023/09/07 10:30:19;;;;;;;5.00;3.00;;;;;;;23.82;56.68;101805.91;4945026;28;20047;-80
2023/09/07 10:32:45;;;;;;;6.05;3.10;;;;;;;23.83;56.91;101810.22;4942509;28;20269;-73
2023/09/07 10:35:18;;;;;;;5.97;3.20;;;;;;;23.74;57.16;101806.59;4957834;28;20038;-73
2023/09/07 10:37:46;;;;;;;5.85;3.25;;;;;;;23.72;57.17;101812.06;4942749;29;20203;-71
2023/09/07 10:40:12;;;;;;;4.78;3.30;;;;;;;23.69;56.92;101800.84;4941960;28;20039;-70
2023/09/07 10:42:38;;;;;;;6.43;3.30;;;;;;;23.68;57.01;101796.50;4942390;28;20046;-70
2023/09/07 10:45:12;;;;;;;8.20;3.35;;;;;;;23.66;57.29;101799.31;4941580;28;20039;-70
2023/09/07 10:47:40;;;;;;;4.82;3.10;;;;;;;23.64;57.16;101795.94;4942366;28;20500;-69
2023/09/07 10:50:06;;;;;;;5.80;2.97;;;;;;;23.65;57.19;101786.97;4942768;28;20027;-71
2023/09/07 10:52:33;;;;;;;7.72;3.10;;;;;;;23.64;57.17;101785.31;4942358;28;21065;-71
2023/09/07 10:54:59;;;;;;;5.57;2.80;;;;;;;23.65;57.13;101780.81;4942413;28;20518;-71
2023/09/07 10:57:24;;;;;;;7.65;3.08;;;;;;;23.64;57.11;101789.75;4941895;28;20035;-72
2023/09/07 10:59:50;;;;;;;5.55;3.15;;;;;;;23.65;57.51;101791.47;4940489;28;20027;-71
2023/09/07 11:02:15;;;;;;;5.68;2.97;;;;;;;23.67;57.05;101781.50;4941328;28;20220;-73
2023/09/07 11:04:41;;;;;;;6.90;3.25;;;;;;;23.67;57.14;101781.50;4940313;29;20110;-73
2023/09/07 11:07:06;;;;;;;5.47;3.20;;;;;;;23.66;56.88;101779.84;4941821;28;20548;-73
2023/09/07 11:09:32;;;;;;;7.22;3.10;;;;;;;23.65;57.11;101781.66;4942097;28;20448;-73
2023/09/07 11:12:03;;;;;;;6.88;3.03;;;;;;;23.68;57.10;101783.19;4956377;28;20035;-71
2023/09/07 11:14:31;;;;;;;7.30;3.15;;;;;;;23.67;57.17;101785.03;4940140;29;20492;-74
2023/09/07 11:16:56;;;;;;;6.40;3.53;;;;;;;23.66;57.09;101779.84;4954516;28;20055;-75
2023/09/07 11:19:22;;;;;;;5.43;3.63;;;;;;;23.67;56.85;101781.50;4942447;29;20122;-74
2023/09/07 11:21:47;;;;;;;5.00;3.20;;;;;;;23.66;56.81;101775.34;4938852;28;20394;-74
2023/09/07 11:24:13;;;;;;;6.90;3.28;;;;;;;23.66;57.10;101771.88;4942212;28;20101;-74
2023/09/07 11:26:45;;;;;;;6.53;3.20;;;;;;;23.66;56.91;101774.53;4940574;29;20043;-75